Accueil
METAR-TAF:

METAR-TAF

Aéroports :

Aéroport international de Skopje

Skopje, Macédoine

latitude: 41-58N, longitude: 021-39E, altitude: 238 m

Observation

Le bulletin a été fait il y a 51 minutes, à 13:50 UTC
Vent 10 kt de nord/nord-ouest, variant entre ouest et nord/nord-est
Température 28°C
Humidité 42%
Pression 1013 hPa
Visibilité 10 km ou plus
Nuages épars à une hauteur de 5000 ft

METAR: LWSK 141350Z 34010KT 270V030 9999 SCT050 28/14 Q1013 NOSIG

Heure: 16:41 (14:41 UTC)

Prévision

Le bulletin a été fait il y a 11 minutes, à 14:30 UTC
Prévision valable du 14 à 15 UTC au 15 à 15 UTC
Vent 10 kt de nord/nord-ouest
Visibilité 10 km ou plus
Nuages épars à une hauteur de 5000 ft
Temporairement
du 14 à 15 UTC au 14 à 18 UTC
Vent 15 kt de nord/nord-est avec des rafales jusqu'à 25 kt

TAF: LWSK 141430Z 1415/1515 34010KT 9999 SCT050 TEMPO 1415/1418 02015G25KT

Observations et prévisions météorologiques de plus de 4000 aéroports (messages METAR et TAF).

Les stations disponibles sont représentées par des disques jaunes et rouges sur la carte.

Passer la souris dessus pour voir le nom de la station.

Cliquer dessus pour voir les observations et prévisions météorologiques.

Pour changer de carte: cliquez sur les boutons verts avec une croix noire pour zoomer, sur le bouton vert avec un tiret pour effectuer un zoom arrière, ou sur les flèches vertes pour les cartes adjacentes.


METAR-TAF: